Time;durP1;ratioP1;P1;durP2;ratioP2;P2;SDS_P1;SDS_P2;PMS_P1;PMS_P2;Temp;Humidity;BMP_temperature;BMP_pressure;BME280_temperature;BME280_humidity;BME280_pressure;Samples;Min_cycle;Max_cycle;Signal;HPM_P1;HPM_P2
2023/09/11 00:00:18;;;;;;;15.18;10.75;;;;;;;20.88;100.00;100940.16;5006957;28;20441;-61
2023/09/11 00:02:43;;;;;;;15.38;10.95;;;;;;;20.84;100.00;100936.81;4999532;28;20741;-61
2023/09/11 00:05:09;;;;;;;18.67;10.65;;;;;;;20.82;100.00;100935.19;4996541;28;20420;-61
2023/09/11 00:07:34;;;;;;;16.58;11.10;;;;;;;20.77;100.00;100930.16;4997105;28;20120;-60
2023/09/11 00:10:00;;;;;;;16.55;11.25;;;;;;;20.75;100.00;100928.53;5003303;28;20091;-61
2023/09/11 00:12:25;;;;;;;12.38;10.68;;;;;;;20.74;100.00;100929.44;4996025;28;20199;-66
2023/09/11 00:14:50;;;;;;;19.75;10.35;;;;;;;20.71;100.00;100927.81;5003986;28;20507;-61
2023/09/11 00:17:16;;;;;;;14.77;10.40;;;;;;;20.68;100.00;100931.44;5000869;28;20498;-61
2023/09/11 00:19:41;;;;;;;16.00;11.13;;;;;;;20.65;100.00;100926.31;5004773;28;20388;-61
2023/09/11 00:22:06;;;;;;;12.82;10.60;;;;;;;20.61;100.00;100934.41;5000419;28;20041;-61
2023/09/11 00:24:32;;;;;;;16.10;10.50;;;;;;;20.58;100.00;100940.66;4999089;28;20022;-61
2023/09/11 00:26:57;;;;;;;13.38;10.75;;;;;;;20.56;100.00;100941.66;5001823;28;20068;-61
2023/09/11 00:29:22;;;;;;;13.50;10.43;;;;;;;20.55;100.00;100937.31;4998847;28;20518;-61
2023/09/11 00:31:48;;;;;;;17.27;11.73;;;;;;;20.55;100.00;100930.28;5002098;28;20057;-61
2023/09/11 00:34:13;;;;;;;15.65;11.70;;;;;;;20.58;100.00;100926.66;4998011;28;20049;-61
2023/09/11 00:36:39;;;;;;;18.70;12.30;;;;;;;20.58;100.00;100914.38;4996180;28;20045;-61
2023/09/11 00:39:04;;;;;;;18.38;12.05;;;;;;;20.54;100.00;100923.31;4998684;28;20030;-61
2023/09/11 00:41:29;;;;;;;18.85;11.93;;;;;;;20.50;100.00;100913.03;4996495;28;20072;-61
2023/09/11 00:43:55;;;;;;;18.80;10.93;;;;;;;20.45;100.00;100917.66;5002735;28;20088;-61
2023/09/11 00:46:20;;;;;;;15.80;10.45;;;;;;;20.42;100.00;100915.19;5001993;28;20065;-61
2023/09/11 00:48:51;;;;;;;12.50;10.07;;;;;;;20.39;100.00;100918.81;4997456;28;20108;-60
2023/09/11 00:51:17;;;;;;;18.65;11.77;;;;;;;20.37;100.00;100912.75;4997067;28;20121;-60
2023/09/11 00:53:42;;;;;;;13.75;10.38;;;;;;;20.36;100.00;100908.44;5000013;28;20037;-61
2023/09/11 00:56:08;;;;;;;15.10;10.32;;;;;;;20.33;100.00;100905.09;4997794;28;20284;-61
2023/09/11 00:58:34;;;;;;;13.38;10.65;;;;;;;20.30;100.00;100908.72;5002921;28;20044;-61
2023/09/11 01:01:00;;;;;;;12.95;10.00;;;;;;;20.26;100.00;100903.66;4999205;28;20335;-66
2023/09/11 01:03:26;;;;;;;23.17;12.77;;;;;;;20.22;100.00;100905.56;4994625;28;20033;-66
2023/09/11 01:05:52;;;;;;;17.58;12.43;;;;;;;20.18;100.00;100904.88;4996231;28;20042;-66
2023/09/11 01:08:19;;;;;;;19.92;11.90;;;;;;;20.11;100.00;100895.59;4994569;28;20034;-66
2023/09/11 01:10:44;;;;;;;16.35;10.52;;;;;;;20.09;100.00;100902.69;5002036;28;20113;-66
2023/09/11 01:13:10;;;;;;;17.70;11.82;;;;;;;20.07;100.00;100901.88;4996522;28;20515;-66
2023/09/11 01:15:45;;;;;;;15.93;11.02;;;;;;;20.05;100.00;100895.84;5000556;28;20030;-66
2023/09/11 01:18:19;;;;;;;17.65;10.73;;;;;;;20.03;100.00;100892.47;5000970;28;20026;-67
2023/09/11 01:21:17;;;;;;;17.55;12.45;;;;;;;20.02;100.00;100890.75;4999753;28;20104;-67
2023/09/11 01:24:20;;;;;;;17.80;11.75;;;;;;;20.00;100.00;100889.13;5004883;28;20034;-67
2023/09/11 01:26:54;;;;;;;14.40;11.25;;;;;;;19.98;100.00;100883.06;5001580;28;20049;-66
2023/09/11 01:29:26;;;;;;;;;;;;;;;19.95;100.00;100884.06;5005786;28;20049;-67
2023/09/11 01:31:58;;;;;;;18.02;11.38;;;;;;;19.94;100.00;100878.91;5004064;28;20110;-67
2023/09/11 01:34:23;;;;;;;13.52;10.65;;;;;;;19.92;100.00;100883.34;4999326;28;20049;-67
2023/09/11 01:36:49;;;;;;;15.15;11.55;;;;;;;19.90;100.00;100879.94;5000849;28;20127;-66
2023/09/11 01:39:15;;;;;;;19.27;10.63;;;;;;;19.86;100.00;100886.28;5000581;28;20044;-66
2023/09/11 01:41:45;;;;;;;16.75;11.02;;;;;;;19.85;100.00;100887.19;5006787;28;20026;-66
2023/09/11 01:44:21;;;;;;;24.15;13.30;;;;;;;19.83;100.00;100892.47;5005085;28;20453;-67
2023/09/11 01:46:49;;;;;;;14.60;11.57;;;;;;;19.80;100.00;100891.78;4994719;28;20044;-67
2023/09/11 01:49:16;;;;;;;15.32;12.05;;;;;;;19.77;100.00;100894.50;4997531;28;20038;-67
2023/09/11 01:51:42;;;;;;;16.27;11.90;;;;;;;19.75;100.00;100888.47;5000255;28;20113;-66
2023/09/11 01:54:08;;;;;;;18.23;12.60;;;;;;;19.74;100.00;100887.59;4998910;28;20121;-66
2023/09/11 01:56:34;;;;;;;15.50;12.20;;;;;;;19.72;100.00;100885.97;5000408;28;20060;-67
2023/09/11 01:58:59;;;;;;;17.17;12.38;;;;;;;19.69;100.00;100889.59;5000458;28;20503;-67
2023/09/11 02:01:26;;;;;;;18.63;12.07;;;;;;;19.66;100.00;100889.72;5006490;28;20040;-66
2023/09/11 02:03:51;;;;;;;17.38;12.30;;;;;;;19.63;100.00;100882.84;4994882;28;20030;-67
2023/09/11 02:06:16;;;;;;;19.67;12.93;;;;;;;19.62;100.00;100886.38;4998663;28;20030;-66
2023/09/11 02:08:42;;;;;;;19.05;11.82;;;;;;;19.59;100.00;100883.06;4998862;28;20504;-66
2023/09/11 02:11:07;;;;;;;17.02;12.10;;;;;;;19.56;100.00;100886.63;4995061;28;20125;-66
2023/09/11 02:13:33;;;;;;;15.82;11.75;;;;;;;19.55;100.00;100884.09;5004303;28;20115;-66
2023/09/11 02:15:59;;;;;;;16.90;12.02;;;;;;;19.51;100.00;100877.28;5000664;28;20045;-66
2023/09/11 02:18:24;;;;;;;16.95;11.93;;;;;;;19.48;100.00;100880.03;4983266;28;20494;-66
2023/09/11 02:20:50;;;;;;;14.98;11.73;;;;;;;19.48;100.00;100885.28;4985071;28;20037;-66
2023/09/11 02:23:16;;;;;;;13.13;11.23;;;;;;;19.47;100.00;100880.97;4981263;28;20038;-66
2023/09/11 02:25:41;;;;;;;20.83;12.07;;;;;;;19.43;100.00;100879.38;4977730;28;20294;-66
2023/09/11 02:28:07;;;;;;;14.35;11.50;;;;;;;19.42;100.00;100882.91;4981646;28;20039;-66
2023/09/11 02:30:32;;;;;;;18.35;12.18;;;;;;;19.41;100.00;100886.47;4999575;28;20541;-66
2023/09/11 02:32:57;;;;;;;16.65;11.38;;;;;;;19.38;100.00;100882.22;4979271;28;20047;-67
2023/09/11 02:35:23;;;;;;;15.20;11.20;;;;;;;19.38;100.00;100889.22;4981823;28;20648;-67
2023/09/11 02:37:48;;;;;;;14.05;10.80;;;;;;;19.34;100.00;100888.50;4984728;28;20579;-66
2023/09/11 02:40:14;;;;;;;14.45;11.88;;;;;;;19.32;100.00;100879.00;4986826;28;20030;-66
2023/09/11 02:42:39;;;;;;;15.50;11.70;;;;;;;19.30;100.00;100879.03;4973239;28;20614;-67
2023/09/11 02:45:05;;;;;;;16.73;11.77;;;;;;;19.29;100.00;100881.75;5003470;28;20491;-66
2023/09/11 02:47:30;;;;;;;14.60;10.75;;;;;;;19.25;100.00;100877.53;4979391;28;20537;-66
2023/09/11 02:49:55;;;;;;;13.82;11.40;;;;;;;19.24;100.00;100874.06;4991397;28;20101;-67
2023/09/11 02:52:21;;;;;;;20.25;12.40;;;;;;;19.21;100.00;100871.56;5000271;28;20041;-67
2023/09/11 02:54:46;;;;;;;19.55;13.02;;;;;;;19.22;100.00;100875.03;5003989;28;20038;-66
2023/09/11 02:57:12;;;;;;;16.50;12.20;;;;;;;19.20;100.00;100872.50;5001061;28;20064;-66
2023/09/11 02:59:38;;;;;;;16.73;11.98;;;;;;;19.20;100.00;100869.03;4996519;28;20097;-66
2023/09/11 03:02:03;;;;;;;16.52;11.10;;;;;;;19.20;100.00;100869.03;5004810;28;20033;-66
2023/09/11 03:04:29;;;;;;;16.48;11.70;;;;;;;19.17;100.00;100867.38;4997768;28;20782;-66
2023/09/11 03:06:54;;;;;;;18.80;11.48;;;;;;;19.18;100.00;100868.22;4994265;28;20110;-66
2023/09/11 03:09:20;;;;;;;22.63;12.60;;;;;;;19.17;100.00;100869.16;4981719;28;20038;-67
2023/09/11 03:11:45;;;;;;;19.10;11.52;;;;;;;19.15;100.00;100863.09;4990417;28;20121;-67
2023/09/11 03:14:11;;;;;;;18.38;11.90;;;;;;;19.15;100.00;100868.34;4987502;28;20388;-66
2023/09/11 03:16:43;;;;;;;26.88;13.35;;;;;;;19.14;100.00;100864.03;4994915;28;20601;-66
2023/09/11 03:19:08;;;;;;;21.15;13.18;;;;;;;19.12;100.00;100856.22;5002480;28;20034;-67
2023/09/11 03:21:34;;;;;;;16.92;12.18;;;;;;;19.13;100.00;100859.72;4978941;28;20034;-66
2023/09/11 03:23:59;;;;;;;18.50;12.68;;;;;;;19.11;100.00;100859.78;5007672;28;20026;-67
2023/09/11 03:26:24;;;;;;;20.88;12.43;;;;;;;19.09;100.00;100860.78;5006587;28;20585;-66
2023/09/11 03:28:50;;;;;;;18.25;12.50;;;;;;;19.04;100.00;100851.31;4995753;28;20562;-67
2023/09/11 03:31:16;;;;;;;18.60;12.35;;;;;;;19.05;100.00;100850.41;4981666;28;20567;-66
2023/09/11 03:33:41;;;;;;;18.98;12.68;;;;;;;19.04;100.00;100858.31;4987151;28;20121;-67
2023/09/11 03:36:06;;;;;;;21.75;13.43;;;;;;;19.00;100.00;100854.97;4984054;28;20045;-67
2023/09/11 03:38:32;;;;;;;24.58;13.10;;;;;;;18.97;100.00;100852.47;4980936;28;20034;-67
2023/09/11 03:40:58;;;;;;;20.45;13.25;;;;;;;18.93;100.00;100856.16;4999375;28;20052;-66
2023/09/11 03:43:24;;;;;;;23.65;13.32;;;;;;;18.91;100.00;100852.72;5002301;28;20589;-66
2023/09/11 03:45:49;;;;;;;18.55;13.52;;;;;;;18.91;100.00;100849.25;5009625;28;20042;-66
2023/09/11 03:48:14;;;;;;;20.85;13.32;;;;;;;18.88;100.00;100852.84;5005669;28;20581;-67
2023/09/11 03:50:40;;;;;;;17.83;13.93;;;;;;;18.87;100.00;100853.78;5002767;28;20042;-66
2023/09/11 03:53:05;;;;;;;24.25;13.50;;;;;;;18.87;100.00;100856.41;5002100;28;20133;-66
2023/09/11 03:55:31;;;;;;;19.77;13.75;;;;;;;18.86;100.00;100852.06;4996511;28;20445;-66
2023/09/11 03:57:57;;;;;;;18.90;13.57;;;;;;;18.87;100.00;100851.19;5004071;28;20045;-60
2023/09/11 04:00:22;;;;;;;22.95;13.80;;;;;;;18.87;100.00;100847.69;5001674;28;20489;-60
2023/09/11 04:02:48;;;;;;;21.83;12.80;;;;;;;18.83;100.00;100846.94;5002672;28;20412;-61
2023/09/11 04:05:14;;;;;;;21.55;13.70;;;;;;;18.82;100.00;100839.97;4997317;28;20034;-60
2023/09/11 04:07:39;;;;;;;21.52;12.90;;;;;;;18.80;100.00;100831.34;4996452;28;20049;-60
2023/09/11 04:10:05;;;;;;;20.27;12.55;;;;;;;18.78;100.00;100830.56;5003098;28;20130;-61
2023/09/11 04:12:30;;;;;;;23.52;13.98;;;;;;;18.77;100.00;100841.09;5004458;28;20048;-61
2023/09/11 04:14:56;;;;;;;20.83;12.57;;;;;;;18.74;100.00;100831.59;5000608;28;20031;-61
2023/09/11 04:17:21;;;;;;;20.05;13.00;;;;;;;18.72;100.00;100833.44;4998534;28;20034;-60
2023/09/11 04:19:46;;;;;;;20.30;12.90;;;;;;;18.71;100.00;100834.34;5000859;28;20149;-61
2023/09/11 04:22:12;;;;;;;22.67;12.82;;;;;;;18.69;100.00;100835.31;4998329;28;20507;-60
2023/09/11 04:24:37;;;;;;;19.77;12.68;;;;;;;18.68;100.00;100836.22;4998744;28;20168;-61
2023/09/11 04:27:03;;;;;;;15.10;11.90;;;;;;;18.64;100.00;100835.47;5002636;28;20040;-62
2023/09/11 04:29:31;;;;;;;14.45;11.27;;;;;;;18.64;100.00;100835.47;5006436;28;20165;-63
2023/09/11 04:31:56;;;;;;;22.00;13.13;;;;;;;18.61;100.00;100830.38;5004846;28;20037;-64
2023/09/11 04:34:22;;;;;;;22.27;13.18;;;;;;;18.62;100.00;100832.09;4997509;28;20053;-63
2023/09/11 04:36:47;;;;;;;15.38;12.55;;;;;;;18.62;100.00;100832.09;4998350;28;20634;-61
2023/09/11 04:39:13;;;;;;;22.60;13.73;;;;;;;18.60;100.00;100826.06;5000498;28;20115;-63
2023/09/11 04:41:38;;;;;;;23.20;13.15;;;;;;;18.60;100.00;100827.84;4998450;28;20034;-63
2023/09/11 04:44:04;;;;;;;18.70;12.73;;;;;;;18.57;100.00;100825.34;5002228;28;20565;-63
2023/09/11 04:46:29;;;;;;;20.30;13.15;;;;;;;18.56;100.00;100827.09;4998026;28;20037;-62
2023/09/11 04:48:55;;;;;;;21.55;13.25;;;;;;;18.53;100.00;100828.06;5003606;28;20509;-62
2023/09/11 04:51:21;;;;;;;26.17;13.15;;;;;;;18.53;100.00;100822.84;5000172;28;20532;-62
2023/09/11 04:53:46;;;;;;;17.65;12.63;;;;;;;18.53;100.00;100825.47;5000799;28;20038;-63
2023/09/11 04:56:11;;;;;;;22.48;11.43;;;;;;;18.53;100.00;100828.06;5000566;28;20042;-63
2023/09/11 04:58:37;;;;;;;21.17;11.48;;;;;;;18.50;100.00;100830.81;5000131;28;20065;-63
2023/09/11 05:01:03;;;;;;;21.48;13.63;;;;;;;18.50;100.00;100830.81;5005415;28;20027;-62
2023/09/11 05:03:28;;;;;;;19.30;12.48;;;;;;;18.50;100.00;100830.81;4993834;28;20434;-63
2023/09/11 05:05:54;;;;;;;22.02;12.48;;;;;;;18.51;100.00;100831.66;4997555;28;20553;-63
2023/09/11 05:08:19;;;;;;;22.83;12.70;;;;;;;18.53;100.00;100832.44;4996602;28;20034;-59
2023/09/11 05:10:44;;;;;;;21.70;12.32;;;;;;;18.55;100.00;100832.41;5002127;28;20503;-63
2023/09/11 05:13:13;;;;;;;19.05;12.30;;;;;;;18.58;100.00;100827.91;4997965;28;20042;-66
2023/09/11 05:15:39;;;;;;;17.48;11.88;;;;;;;18.58;100.00;100833.16;4997887;28;20567;-62
2023/09/11 05:18:05;;;;;;;15.50;11.27;;;;;;;18.58;100.00;100825.28;5002191;28;20149;-63
2023/09/11 05:20:30;;;;;;;21.23;11.98;;;;;;;18.60;100.00;100833.06;5003519;28;20044;-63
2023/09/11 05:22:56;;;;;;;19.90;12.27;;;;;;;18.63;100.00;100832.94;5001938;28;20121;-63
2023/09/11 05:25:22;;;;;;;26.92;12.10;;;;;;;18.66;100.00;100838.06;5005371;28;20042;-62
2023/09/11 05:27:48;;;;;;;18.95;11.73;;;;;;;18.66;100.00;100828.44;5005128;28;20068;-63
2023/09/11 05:30:13;;;;;;;18.35;11.55;;;;;;;18.67;100.00;100837.16;5002512;28;20026;-63
2023/09/11 05:32:39;;;;;;;21.20;11.73;;;;;;;18.70;100.00;100839.66;4999855;28;20038;-63
2023/09/11 05:35:05;;;;;;;21.13;11.52;;;;;;;18.72;100.00;100843.03;4996785;28;20052;-62
2023/09/11 05:37:31;;;;;;;22.65;11.80;;;;;;;18.74;100.00;100842.06;5001021;28;20470;-62
2023/09/11 05:39:56;;;;;;;27.50;11.98;;;;;;;18.77;100.00;100838.47;5000128;28;20128;-62
2023/09/11 05:42:21;;;;;;;20.00;11.75;;;;;;;18.80;100.00;100843.56;4994897;28;20032;-62
2023/09/11 05:44:48;;;;;;;21.73;10.73;;;;;;;18.83;100.00;100836.47;5002407;28;20045;-59
2023/09/11 05:47:14;;;;;;;22.92;12.15;;;;;;;18.86;100.00;100844.22;4996663;28;20038;-59
2023/09/11 05:49:39;;;;;;;25.88;10.93;;;;;;;18.91;100.00;100846.63;5002575;28;20693;-59
2023/09/11 05:52:05;;;;;;;18.52;10.93;;;;;;;18.96;100.00;100842.94;4998877;28;20034;-59
2023/09/11 05:54:31;;;;;;;25.13;11.27;;;;;;;19.00;100.00;100838.41;4997726;28;20129;-59
2023/09/11 05:56:57;;;;;;;21.92;11.23;;;;;;;19.04;100.00;100838.22;5001014;28;20497;-59
2023/09/11 05:59:22;;;;;;;20.77;11.25;;;;;;;19.10;100.00;100844.97;4999841;28;20104;-59
2023/09/11 06:01:48;;;;;;;18.02;10.93;;;;;;;19.18;100.00;100844.63;5005566;28;20030;-59
2023/09/11 06:04:13;;;;;;;23.33;11.52;;;;;;;19.23;100.00;100851.41;4999209;28;20038;-59
2023/09/11 06:06:39;;;;;;;17.45;11.45;;;;;;;19.29;100.00;100845.06;4993808;28;20034;-59
2023/09/11 06:09:08;;;;;;;27.67;11.38;;;;;;;19.36;100.00;100849.09;4996330;28;20091;-59
2023/09/11 06:11:36;;;;;;;17.70;9.70;;;;;;;19.41;100.00;100849.75;5002376;28;20061;-61
2023/09/11 06:14:04;;;;;;;19.98;10.70;;;;;;;19.47;100.00;100854.75;5000923;28;20056;-60
2023/09/11 06:16:29;;;;;;;19.38;11.75;;;;;;;19.57;100.00;100854.25;5004678;28;20045;-59
2023/09/11 06:18:56;;;;;;;20.98;10.10;;;;;;;19.65;100.00;100848.66;5003367;28;20403;-61
2023/09/11 06:21:22;;;;;;;21.50;10.93;;;;;;;19.72;100.00;100851.88;5001452;28;20133;-61
2023/09/11 06:23:47;;;;;;;23.65;11.05;;;;;;;19.75;100.00;100855.22;5004986;28;20525;-61
2023/09/11 06:26:12;;;;;;;22.67;10.15;;;;;;;19.83;99.68;100857.56;5000094;28;20061;-61
2023/09/11 06:28:38;;;;;;;18.38;9.63;;;;;;;19.89;99.93;100852.84;4996202;28;20037;-61
2023/09/11 06:31:04;;;;;;;16.92;9.35;;;;;;;19.98;98.80;100857.69;5000448;28;20395;-67
2023/09/11 06:33:29;;;;;;;16.67;9.52;;;;;;;20.06;98.35;100859.97;4996112;28;20104;-60
2023/09/11 06:35:54;;;;;;;23.58;9.85;;;;;;;20.13;97.33;100857.00;4996029;28;20053;-59
2023/09/11 06:38:21;;;;;;;14.77;9.70;;;;;;;20.20;97.25;100860.19;5002513;28;20032;-63
2023/09/11 06:40:47;;;;;;;18.40;10.45;;;;;;;20.27;97.34;100863.38;5002260;28;20037;-59
2023/09/11 06:43:12;;;;;;;13.63;9.57;;;;;;;20.32;96.75;100861.38;4998779;28;20399;-61
2023/09/11 06:45:38;;;;;;;23.85;9.35;;;;;;;20.41;95.16;100863.59;5005947;28;20032;-60
2023/09/11 06:48:05;;;;;;;20.40;9.48;;;;;;;20.47;94.59;100861.53;4999749;28;20034;-61
2023/09/11 06:50:30;;;;;;;23.25;9.40;;;;;;;20.52;94.24;100856.03;5001840;28;20479;-61
2023/09/11 06:52:55;;;;;;;14.00;8.45;;;;;;;20.59;94.46;100854.84;5006809;28;20303;-61
2023/09/11 06:55:21;;;;;;;20.20;9.18;;;;;;;20.63;94.44;100859.03;4998056;28;20070;-61
2023/09/11 06:58:00;;;;;;;17.27;9.00;;;;;;;20.72;93.52;100861.22;5004231;28;20789;-61
2023/09/11 07:00:26;;;;;;;21.42;9.52;;;;;;;20.77;93.40;100859.22;5000447;28;20671;-61
2023/09/11 07:02:51;;;;;;;18.55;8.60;;;;;;;20.83;93.03;100858.06;4996386;28;20045;-61
2023/09/11 07:05:20;;;;;;;17.08;8.65;;;;;;;20.89;92.19;100852.53;4998000;28;20121;-61
2023/09/11 07:07:46;;;;;;;14.35;8.63;;;;;;;20.96;92.25;100856.53;4998231;28;20563;-61
2023/09/11 07:10:15;;;;;;;16.50;8.85;;;;;;;21.07;90.77;100857.72;5007919;28;20512;-61
2023/09/11 07:12:43;;;;;;;17.75;8.70;;;;;;;21.23;89.72;100853.38;4999682;28;20635;-61
2023/09/11 07:15:09;;;;;;;13.50;7.57;;;;;;;21.29;89.77;100852.22;5000526;28;20030;-61
2023/09/11 07:17:35;;;;;;;15.32;8.60;;;;;;;21.32;90.08;100853.81;5005101;28;20057;-61
2023/09/11 07:20:04;;;;;;;15.55;8.32;;;;;;;21.45;87.77;100844.38;5002610;28;20193;-61
2023/09/11 07:22:30;;;;;;;18.40;8.75;;;;;;;21.54;86.57;100836.88;5005946;28;20041;-61
2023/09/11 07:24:55;;;;;;;15.02;8.15;;;;;;;21.61;86.65;100827.75;4999087;28;20042;-61
2023/09/11 07:27:21;;;;;;;18.20;7.88;;;;;;;21.74;85.87;100826.19;5004343;28;20046;-61
2023/09/11 07:29:47;;;;;;;22.20;8.65;;;;;;;21.77;86.40;100827.78;5004313;28;20050;-61
2023/09/11 07:32:12;;;;;;;22.10;7.38;;;;;;;21.78;86.62;100833.00;5007710;28;20087;-61
2023/09/11 07:34:37;;;;;;;17.58;7.72;;;;;;;21.91;85.30;100820.00;5003966;28;20192;-59
2023/09/11 07:37:03;;;;;;;14.07;7.70;;;;;;;22.01;85.66;100815.09;4996859;28;20041;-59
2023/09/11 07:39:29;;;;;;;17.65;7.60;;;;;;;22.10;85.12;100822.47;5001672;28;20036;-59
2023/09/11 07:41:54;;;;;;;16.30;7.00;;;;;;;22.17;82.39;100811.53;4998976;28;20030;-59
2023/09/11 07:44:20;;;;;;;20.65;9.10;;;;;;;22.36;81.63;100806.94;5004891;28;20473;-59
2023/09/11 07:46:45;;;;;;;17.30;8.52;;;;;;;22.45;80.94;100815.28;4999198;28;20061;-59
2023/09/11 07:49:10;;;;;;;19.58;7.43;;;;;;;22.51;80.74;100814.94;4997120;28;20041;-59
2023/09/11 07:51:36;;;;;;;15.82;7.47;;;;;;;22.56;80.23;100807.63;5002792;28;20048;-60
2023/09/11 07:54:01;;;;;;;14.05;6.93;;;;;;;22.68;79.28;100805.13;5001691;28;20404;-59
2023/09/11 07:56:26;;;;;;;15.18;7.65;;;;;;;22.81;79.36;100807.91;5000342;28;20521;-59
2023/09/11 07:58:53;;;;;;;16.85;7.28;;;;;;;22.89;78.74;100818.84;5001237;28;20543;-59
2023/09/11 08:01:19;;;;;;;16.70;7.22;;;;;;;22.97;77.99;100813.16;5004814;28;20038;-60
2023/09/11 08:03:44;;;;;;;18.88;6.85;;;;;;;23.03;78.06;100815.41;4993728;28;20031;-59
2023/09/11 08:06:10;;;;;;;14.65;6.90;;;;;;;23.04;78.08;100806.56;4999942;28;20725;-66
2023/09/11 08:08:36;;;;;;;16.60;7.10;;;;;;;23.06;76.91;100816.09;4997470;28;20049;-66
2023/09/11 08:11:19;;;;;;;14.38;6.80;;;;;;;23.09;77.25;100828.25;5000722;28;20824;-66
2023/09/11 08:13:50;;;;;;;18.85;7.00;;;;;;;23.15;77.15;100817.34;5006945;28;20571;-66
2023/09/11 08:16:19;;;;;;;15.23;6.55;;;;;;;23.24;75.58;100801.84;5006856;28;20061;-66
2023/09/11 08:18:44;;;;;;;18.25;6.13;;;;;;;23.30;76.48;100814.63;5004827;28;20141;-66
2023/09/11 08:21:10;;;;;;;18.27;6.43;;;;;;;23.33;76.73;100825.00;4997982;28;20049;-59
2023/09/11 08:23:36;;;;;;;17.55;7.03;;;;;;;23.51;75.56;100809.03;4997422;28;20121;-59
2023/09/11 08:26:01;;;;;;;17.27;6.15;;;;;;;23.68;73.96;100793.84;5001849;28;20160;-59
2023/09/11 08:28:30;;;;;;;15.98;6.80;;;;;;;23.86;72.42;100776.88;4997088;28;20037;-59
2023/09/11 08:30:56;;;;;;;14.52;6.55;;;;;;;23.98;70.52;100757.66;5002051;28;20034;-59
2023/09/11 08:33:22;;;;;;;16.58;6.80;;;;;;;24.01;72.03;100783.00;4998889;28;20037;-59
2023/09/11 08:35:48;;;;;;;19.08;6.72;;;;;;;23.99;72.67;100787.50;4998108;28;20041;-59
2023/09/11 08:38:17;;;;;;;12.90;5.95;;;;;;;24.05;73.03;100795.06;5000414;28;20045;-59
2023/09/11 08:40:43;;;;;;;20.98;7.07;;;;;;;24.10;73.00;100798.28;4999637;28;20030;-59
2023/09/11 08:43:09;;;;;;;15.98;6.93;;;;;;;24.13;72.98;100803.34;5000435;28;20029;-59
2023/09/11 08:45:35;;;;;;;15.18;6.13;;;;;;;24.21;73.09;100792.28;5004478;28;20030;-60
2023/09/11 08:48:08;;;;;;;13.63;6.07;;;;;;;24.40;70.60;100758.47;5001010;28;20026;-59
2023/09/11 08:50:38;;;;;;;19.75;6.90;;;;;;;24.52;70.28;100762.94;4999621;28;20217;-60
2023/09/11 08:53:03;;;;;;;13.50;5.57;;;;;;;24.68;70.40;100762.75;5004493;28;20092;-59
2023/09/11 08:55:33;;;;;;;15.35;6.20;;;;;;;24.85;69.15;100754.56;5005287;28;20030;-59
2023/09/11 08:58:04;;;;;;;13.38;6.13;;;;;;;24.86;69.88;100766.84;5004436;28;20111;-59
2023/09/11 09:00:32;;;;;;;13.80;6.15;;;;;;;25.12;68.01;100731.53;5000260;28;20065;-63
2023/09/11 09:02:59;;;;;;;16.25;7.03;;;;;;;25.18;67.52;100736.38;5004304;28;20034;-59
2023/09/11 09:05:25;;;;;;;19.27;6.32;;;;;;;25.30;65.84;100718.81;4999253;28;20038;-59
2023/09/11 09:07:52;;;;;;;13.75;6.28;;;;;;;25.43;65.50;100725.84;4996116;28;20034;-59
2023/09/11 09:10:18;;;;;;;16.50;6.53;;;;;;;25.48;65.14;100714.91;5005263;28;20127;-59
2023/09/11 09:12:44;;;;;;;15.05;5.88;;;;;;;25.58;63.83;100695.63;5003153;28;20081;-60
2023/09/11 09:15:10;;;;;;;15.68;6.38;;;;;;;25.62;65.21;100714.75;4998105;28;20034;-59
2023/09/11 09:17:35;;;;;;;18.85;6.22;;;;;;;25.82;64.05;100705.41;5000089;28;20034;-59
2023/09/11 09:20:01;;;;;;;18.85;5.93;;;;;;;25.85;64.11;100713.13;4999592;28;20049;-59
2023/09/11 09:22:26;;;;;;;11.93;5.95;;;;;;;25.90;64.57;100716.28;5002976;28;20645;-59
2023/09/11 09:24:53;;;;;;;17.15;7.00;;;;;;;25.98;63.40;100698.03;4997641;28;20034;-59
2023/09/11 09:27:21;;;;;;;15.75;5.57;;;;;;;26.09;64.29;100711.34;5003354;28;20051;-59
2023/09/11 09:29:48;;;;;;;16.92;7.25;;;;;;;26.14;64.12;100710.09;5002496;28;20031;-60
2023/09/11 09:32:14;;;;;;;14.93;6.40;;;;;;;26.25;63.37;100705.78;5003773;28;20056;-59
2023/09/11 09:34:57;;;;;;;14.43;6.07;;;;;;;26.24;64.33;100714.69;4995159;28;20034;-59
2023/09/11 09:37:24;;;;;;;11.85;5.43;;;;;;;26.34;63.90;100705.94;5000197;28;20038;-59
2023/09/11 09:39:50;;;;;;;18.13;6.60;;;;;;;26.41;63.40;100707.19;5000109;28;20040;-59
2023/09/11 09:42:16;;;;;;;14.65;6.88;;;;;;;26.48;64.14;100711.03;5001961;28;20117;-60
2023/09/11 09:44:47;;;;;;;18.52;6.00;;;;;;;26.67;62.25;100681.34;5000311;28;20034;-59
2023/09/11 09:47:15;;;;;;;13.20;6.13;;;;;;;26.78;60.46;100659.31;4995508;28;20712;-60
2023/09/11 09:49:45;;;;;;;13.90;6.35;;;;;;;26.80;61.35;100668.03;5000500;28;20554;-60
2023/09/11 09:52:11;;;;;;;15.15;6.30;;;;;;;26.98;59.52;100635.63;5000574;28;20505;-60
2023/09/11 09:54:41;;;;;;;12.73;5.85;;;;;;;27.10;59.87;100650.59;4999761;28;20053;-60
2023/09/11 09:57:10;;;;;;;16.80;6.25;;;;;;;27.11;60.91;100669.97;5003310;28;20484;-66
2023/09/11 09:59:36;;;;;;;13.73;5.93;;;;;;;27.10;60.39;100658.53;5002127;28;20034;-66
2023/09/11 10:02:01;;;;;;;14.40;5.70;;;;;;;27.17;59.96;100649.09;5005062;28;20116;-67
2023/09/11 10:04:27;;;;;;;16.35;5.97;;;;;;;27.24;59.61;100652.13;4998968;28;20149;-67
2023/09/11 10:06:56;;;;;;;11.63;5.97;;;;;;;27.23;59.59;100653.94;5002771;28;20033;-67
2023/09/11 10:09:22;;;;;;;10.45;5.72;;;;;;;27.33;57.24;100616.91;5004856;28;20030;-61
2023/09/11 10:11:50;;;;;;;13.13;6.45;;;;;;;27.60;57.07;100605.88;4999326;28;20050;-61
2023/09/11 10:14:18;;;;;;;12.32;5.07;;;;;;;27.66;56.44;100597.41;4999907;28;20407;-59
2023/09/11 10:16:45;;;;;;;12.48;5.72;;;;;;;27.69;56.84;100605.13;4996336;28;20033;-59
2023/09/11 10:19:12;;;;;;;8.43;4.70;;;;;;;27.80;56.02;100591.81;5003312;28;20034;-60
2023/09/11 10:21:37;;;;;;;14.73;5.28;;;;;;;27.79;55.76;100588.31;4996356;28;20038;-62
2023/09/11 10:24:03;;;;;;;10.27;5.57;;;;;;;28.05;55.39;100583.50;5002888;28;20025;-62
2023/09/11 10:26:56;;;;;;;14.50;5.63;;;;;;;28.09;55.85;100600.88;4997994;28;20044;-63
2023/09/11 10:29:29;;;;;;;12.93;6.05;;;;;;;28.11;54.44;100577.69;5003152;28;20050;-63
2023/09/11 10:32:22;;;;;;;16.53;5.50;;;;;;;28.21;52.54;100544.03;5001322;28;20034;-62
2023/09/11 10:34:51;;;;;;;17.48;5.43;;;;;;;28.20;52.13;100542.34;4996694;28;20042;-61
2023/09/11 10:37:20;;;;;;;12.27;5.55;;;;;;;28.32;50.75;100524.53;5000732;28;20057;-61
2023/09/11 10:39:46;;;;;;;13.25;5.38;;;;;;;28.29;51.44;100544.22;4997539;28;20254;-61
2023/09/11 10:42:12;;;;;;;10.30;4.97;;;;;;;28.28;51.29;100539.06;4998175;28;20034;-59
2023/09/11 10:44:38;;;;;;;14.23;5.75;;;;;;;28.32;52.03;100551.94;5000379;28;20503;-59
2023/09/11 10:47:04;;;;;;;13.18;5.20;;;;;;;28.40;52.05;100547.78;4997543;28;20034;-60
2023/09/11 10:49:37;;;;;;;11.30;5.03;;;;;;;28.46;51.59;100536.63;5001192;28;20040;-60
2023/09/11 10:52:06;;;;;;;8.63;5.13;;;;;;;28.45;52.10;100551.72;4997991;28;20729;-59
2023/09/11 10:54:31;;;;;;;12.98;4.90;;;;;;;28.68;50.88;100529.31;4995087;28;20049;-60
2023/09/11 10:56:56;;;;;;;16.42;5.63;;;;;;;28.78;50.38;100519.59;4999367;28;20448;-59
2023/09/11 10:59:26;;;;;;;12.15;5.22;;;;;;;28.84;50.20;100520.84;5000640;28;20375;-59
2023/09/11 11:01:52;;;;;;;13.07;5.75;;;;;;;28.98;50.36;100512.50;5004425;28;20042;-59
2023/09/11 11:04:17;;;;;;;10.95;5.22;;;;;;;29.05;48.80;100487.03;5002578;28;20038;-60
2023/09/11 11:06:47;;;;;;;11.65;5.05;;;;;;;29.09;48.73;100477.78;4994406;28;20034;-59